sensor_id;sensor_type;location;lat;lon;timestamp;P1;durP1;ratioP1;P2;durP2;ratioP2
17363;SDS011;8799;43.594;13.526;2023-02-15T00:00:29;13.40;;;6.07;;
17363;SDS011;8799;43.594;13.526;2023-02-15T00:02:57;11.03;;;5.80;;
17363;SDS011;8799;43.594;13.526;2023-02-15T00:05:25;14.97;;;5.73;;
17363;SDS011;8799;43.594;13.526;2023-02-15T00:07:54;10.33;;;5.73;;
17363;SDS011;8799;43.594;13.526;2023-02-15T00:10:22;13.23;;;6.20;;
17363;SDS011;8799;43.594;13.526;2023-02-15T00:12:50;13.87;;;6.57;;
17363;SDS011;8799;43.594;13.526;2023-02-15T00:15:18;11.37;;;6.00;;
17363;SDS011;8799;43.594;13.526;2023-02-15T00:17:51;10.00;;;6.07;;
17363;SDS011;8799;43.594;13.526;2023-02-15T00:20:19;13.77;;;6.43;;
17363;SDS011;8799;43.594;13.526;2023-02-15T00:22:47;10.07;;;5.67;;
17363;SDS011;8799;43.594;13.526;2023-02-15T00:25:16;11.20;;;6.00;;
17363;SDS011;8799;43.594;13.526;2023-02-15T00:27:44;9.47;;;5.17;;
17363;SDS011;8799;43.594;13.526;2023-02-15T00:30:13;11.53;;;5.97;;
17363;SDS011;8799;43.594;13.526;2023-02-15T00:32:40;13.87;;;5.70;;
17363;SDS011;8799;43.594;13.526;2023-02-15T00:35:13;16.37;;;6.60;;
17363;SDS011;8799;43.594;13.526;2023-02-15T00:37:41;9.77;;;5.10;;
17363;SDS011;8799;43.594;13.526;2023-02-15T00:40:10;10.17;;;5.50;;
17363;SDS011;8799;43.594;13.526;2023-02-15T00:42:38;11.33;;;5.93;;
17363;SDS011;8799;43.594;13.526;2023-02-15T00:45:06;13.60;;;5.97;;
17363;SDS011;8799;43.594;13.526;2023-02-15T00:47:35;12.57;;;5.43;;
17363;SDS011;8799;43.594;13.526;2023-02-15T00:50:04;11.30;;;5.50;;
17363;SDS011;8799;43.594;13.526;2023-02-15T00:52:34;13.30;;;6.43;;
17363;SDS011;8799;43.594;13.526;2023-02-15T00:55:02;11.27;;;6.07;;
17363;SDS011;8799;43.594;13.526;2023-02-15T00:57:31;11.13;;;5.70;;
17363;SDS011;8799;43.594;13.526;2023-02-15T00:59:59;13.83;;;6.17;;
17363;SDS011;8799;43.594;13.526;2023-02-15T01:02:27;12.53;;;6.27;;
17363;SDS011;8799;43.594;13.526;2023-02-15T01:04:55;9.90;;;5.87;;
17363;SDS011;8799;43.594;13.526;2023-02-15T01:07:23;13.23;;;5.60;;
17363;SDS011;8799;43.594;13.526;2023-02-15T01:09:53;13.83;;;6.27;;
17363;SDS011;8799;43.594;13.526;2023-02-15T01:12:20;16.03;;;6.17;;
17363;SDS011;8799;43.594;13.526;2023-02-15T01:14:48;12.53;;;6.03;;
17363;SDS011;8799;43.594;13.526;2023-02-15T01:17:16;13.20;;;6.60;;
17363;SDS011;8799;43.594;13.526;2023-02-15T01:19:45;12.70;;;6.33;;
17363;SDS011;8799;43.594;13.526;2023-02-15T01:22:16;12.77;;;6.00;;
17363;SDS011;8799;43.594;13.526;2023-02-15T01:24:44;10.87;;;6.20;;
17363;SDS011;8799;43.594;13.526;2023-02-15T01:27:14;11.20;;;6.57;;
17363;SDS011;8799;43.594;13.526;2023-02-15T01:29:42;12.30;;;5.80;;
17363;SDS011;8799;43.594;13.526;2023-02-15T01:32:09;10.57;;;5.87;;
17363;SDS011;8799;43.594;13.526;2023-02-15T01:34:37;13.87;;;6.37;;
17363;SDS011;8799;43.594;13.526;2023-02-15T01:37:06;11.60;;;6.10;;
17363;SDS011;8799;43.594;13.526;2023-02-15T01:39:34;14.67;;;6.60;;
17363;SDS011;8799;43.594;13.526;2023-02-15T01:42:02;13.80;;;6.63;;
17363;SDS011;8799;43.594;13.526;2023-02-15T01:44:50;12.33;;;5.97;;
17363;SDS011;8799;43.594;13.526;2023-02-15T01:47:20;12.07;;;6.07;;
17363;SDS011;8799;43.594;13.526;2023-02-15T01:49:54;15.23;;;6.87;;
17363;SDS011;8799;43.594;13.526;2023-02-15T01:52:28;14.90;;;6.83;;
17363;SDS011;8799;43.594;13.526;2023-02-15T01:54:56;13.53;;;6.83;;
17363;SDS011;8799;43.594;13.526;2023-02-15T01:57:25;12.57;;;6.40;;
17363;SDS011;8799;43.594;13.526;2023-02-15T01:59:56;13.17;;;6.50;;
17363;SDS011;8799;43.594;13.526;2023-02-15T02:02:25;13.70;;;7.10;;
17363;SDS011;8799;43.594;13.526;2023-02-15T02:04:56;13.63;;;7.13;;
17363;SDS011;8799;43.594;13.526;2023-02-15T02:07:28;13.90;;;7.60;;
17363;SDS011;8799;43.594;13.526;2023-02-15T02:09:59;16.80;;;7.10;;
17363;SDS011;8799;43.594;13.526;2023-02-15T02:12:29;12.67;;;6.93;;
17363;SDS011;8799;43.594;13.526;2023-02-15T02:14:59;15.37;;;7.27;;
17363;SDS011;8799;43.594;13.526;2023-02-15T02:17:30;14.47;;;7.17;;
17363;SDS011;8799;43.594;13.526;2023-02-15T02:23:04;12.00;;;6.70;;
17363;SDS011;8799;43.594;13.526;2023-02-15T02:29:00;15.07;;;7.73;;
17363;SDS011;8799;43.594;13.526;2023-02-15T02:35:11;14.80;;;7.10;;
17363;SDS011;8799;43.594;13.526;2023-02-15T02:37:46;14.30;;;6.80;;
17363;SDS011;8799;43.594;13.526;2023-02-15T02:40:24;13.47;;;6.77;;
17363;SDS011;8799;43.594;13.526;2023-02-15T02:42:59;15.90;;;8.10;;
17363;SDS011;8799;43.594;13.526;2023-02-15T02:45:33;18.77;;;7.30;;
17363;SDS011;8799;43.594;13.526;2023-02-15T02:48:08;13.83;;;6.53;;
17363;SDS011;8799;43.594;13.526;2023-02-15T02:50:41;20.03;;;7.63;;
17363;SDS011;8799;43.594;13.526;2023-02-15T02:53:09;17.40;;;7.23;;
17363;SDS011;8799;43.594;13.526;2023-02-15T02:55:38;12.97;;;7.23;;
17363;SDS011;8799;43.594;13.526;2023-02-15T02:58:11;14.73;;;6.87;;
17363;SDS011;8799;43.594;13.526;2023-02-15T03:00:44;14.57;;;7.03;;
17363;SDS011;8799;43.594;13.526;2023-02-15T03:03:17;13.93;;;6.93;;
17363;SDS011;8799;43.594;13.526;2023-02-15T03:05:52;13.60;;;7.20;;
17363;SDS011;8799;43.594;13.526;2023-02-15T03:08:23;17.37;;;7.27;;
17363;SDS011;8799;43.594;13.526;2023-02-15T03:10:54;12.50;;;6.90;;
17363;SDS011;8799;43.594;13.526;2023-02-15T03:13:26;14.13;;;6.93;;
17363;SDS011;8799;43.594;13.526;2023-02-15T03:15:55;12.80;;;6.70;;
17363;SDS011;8799;43.594;13.526;2023-02-15T03:18:41;13.37;;;7.33;;
17363;SDS011;8799;43.594;13.526;2023-02-15T03:21:19;17.07;;;7.40;;
17363;SDS011;8799;43.594;13.526;2023-02-15T03:23:51;15.90;;;6.93;;
17363;SDS011;8799;43.594;13.526;2023-02-15T03:26:22;16.93;;;7.77;;
17363;SDS011;8799;43.594;13.526;2023-02-15T03:28:52;14.00;;;7.27;;
17363;SDS011;8799;43.594;13.526;2023-02-15T03:31:23;15.27;;;7.87;;
17363;SDS011;8799;43.594;13.526;2023-02-15T03:33:56;13.83;;;6.83;;
17363;SDS011;8799;43.594;13.526;2023-02-15T03:36:30;12.23;;;6.97;;
17363;SDS011;8799;43.594;13.526;2023-02-15T03:39:07;15.90;;;7.70;;
17363;SDS011;8799;43.594;13.526;2023-02-15T03:41:41;16.33;;;7.17;;
17363;SDS011;8799;43.594;13.526;2023-02-15T03:44:16;14.77;;;7.27;;
17363;SDS011;8799;43.594;13.526;2023-02-15T03:46:51;12.37;;;7.00;;
17363;SDS011;8799;43.594;13.526;2023-02-15T03:49:25;13.80;;;7.33;;
17363;SDS011;8799;43.594;13.526;2023-02-15T03:52:00;13.87;;;6.90;;
17363;SDS011;8799;43.594;13.526;2023-02-15T03:54:32;12.47;;;6.67;;
17363;SDS011;8799;43.594;13.526;2023-02-15T03:57:14;17.03;;;7.23;;
17363;SDS011;8799;43.594;13.526;2023-02-15T04:00:37;16.50;;;6.90;;
17363;SDS011;8799;43.594;13.526;2023-02-15T04:03:26;12.17;;;6.20;;
17363;SDS011;8799;43.594;13.526;2023-02-15T04:06:00;14.03;;;7.03;;
17363;SDS011;8799;43.594;13.526;2023-02-15T04:08:31;13.23;;;6.23;;
17363;SDS011;8799;43.594;13.526;2023-02-15T04:11:13;14.67;;;7.20;;
17363;SDS011;8799;43.594;13.526;2023-02-15T04:13:41;15.27;;;7.07;;
17363;SDS011;8799;43.594;13.526;2023-02-15T04:16:09;16.73;;;6.57;;
17363;SDS011;8799;43.594;13.526;2023-02-15T04:18:36;13.73;;;6.67;;
17363;SDS011;8799;43.594;13.526;2023-02-15T04:21:23;15.37;;;7.33;;
17363;SDS011;8799;43.594;13.526;2023-02-15T04:24:11;13.17;;;7.17;;
17363;SDS011;8799;43.594;13.526;2023-02-15T04:26:56;13.67;;;6.93;;
17363;SDS011;8799;43.594;13.526;2023-02-15T04:29:24;12.27;;;6.90;;
17363;SDS011;8799;43.594;13.526;2023-02-15T04:31:53;12.90;;;6.80;;
17363;SDS011;8799;43.594;13.526;2023-02-15T04:34:24;16.10;;;6.90;;
17363;SDS011;8799;43.594;13.526;2023-02-15T04:36:53;13.37;;;7.20;;
17363;SDS011;8799;43.594;13.526;2023-02-15T04:39:22;14.40;;;7.10;;
17363;SDS011;8799;43.594;13.526;2023-02-15T04:41:50;12.90;;;7.30;;
17363;SDS011;8799;43.594;13.526;2023-02-15T04:44:17;14.63;;;6.53;;
17363;SDS011;8799;43.594;13.526;2023-02-15T04:46:45;15.70;;;7.43;;
17363;SDS011;8799;43.594;13.526;2023-02-15T04:49:14;13.47;;;7.17;;
17363;SDS011;8799;43.594;13.526;2023-02-15T04:51:42;14.60;;;7.03;;
17363;SDS011;8799;43.594;13.526;2023-02-15T04:54:10;16.03;;;7.30;;
17363;SDS011;8799;43.594;13.526;2023-02-15T04:56:40;16.70;;;7.30;;
17363;SDS011;8799;43.594;13.526;2023-02-15T04:59:09;15.50;;;6.20;;
17363;SDS011;8799;43.594;13.526;2023-02-15T05:01:37;14.17;;;7.07;;
17363;SDS011;8799;43.594;13.526;2023-02-15T05:04:04;17.03;;;6.77;;
17363;SDS011;8799;43.594;13.526;2023-02-15T05:06:32;13.30;;;7.23;;
17363;SDS011;8799;43.594;13.526;2023-02-15T05:09:00;15.23;;;7.47;;
17363;SDS011;8799;43.594;13.526;2023-02-15T05:11:28;13.43;;;7.17;;
17363;SDS011;8799;43.594;13.526;2023-02-15T05:13:58;19.70;;;6.87;;
17363;SDS011;8799;43.594;13.526;2023-02-15T05:16:25;12.60;;;6.60;;
17363;SDS011;8799;43.594;13.526;2023-02-15T05:18:53;11.50;;;7.03;;
17363;SDS011;8799;43.594;13.526;2023-02-15T05:21:21;13.17;;;7.30;;
17363;SDS011;8799;43.594;13.526;2023-02-15T05:23:50;12.60;;;6.53;;
17363;SDS011;8799;43.594;13.526;2023-02-15T05:26:18;16.03;;;7.23;;
17363;SDS011;8799;43.594;13.526;2023-02-15T05:29:06;11.20;;;6.70;;
17363;SDS011;8799;43.594;13.526;2023-02-15T05:31:34;13.03;;;6.60;;
17363;SDS011;8799;43.594;13.526;2023-02-15T05:34:03;14.73;;;6.63;;
17363;SDS011;8799;43.594;13.526;2023-02-15T05:36:31;13.17;;;6.80;;
17363;SDS011;8799;43.594;13.526;2023-02-15T05:38:59;16.17;;;7.60;;
17363;SDS011;8799;43.594;13.526;2023-02-15T05:41:27;16.27;;;7.47;;
17363;SDS011;8799;43.594;13.526;2023-02-15T05:43:55;19.13;;;7.73;;
17363;SDS011;8799;43.594;13.526;2023-02-15T05:46:25;13.43;;;7.20;;
17363;SDS011;8799;43.594;13.526;2023-02-15T05:48:53;12.83;;;6.70;;
17363;SDS011;8799;43.594;13.526;2023-02-15T05:51:21;17.03;;;7.57;;
17363;SDS011;8799;43.594;13.526;2023-02-15T05:53:49;17.20;;;7.60;;
17363;SDS011;8799;43.594;13.526;2023-02-15T05:56:16;12.93;;;7.57;;
17363;SDS011;8799;43.594;13.526;2023-02-15T05:58:44;14.80;;;7.27;;
17363;SDS011;8799;43.594;13.526;2023-02-15T06:01:12;14.53;;;7.20;;
17363;SDS011;8799;43.594;13.526;2023-02-15T06:03:44;20.63;;;7.97;;
17363;SDS011;8799;43.594;13.526;2023-02-15T06:06:12;16.53;;;8.00;;
17363;SDS011;8799;43.594;13.526;2023-02-15T06:08:39;14.03;;;7.57;;
17363;SDS011;8799;43.594;13.526;2023-02-15T06:11:07;19.57;;;7.93;;
17363;SDS011;8799;43.594;13.526;2023-02-15T06:13:36;15.77;;;8.37;;
17363;SDS011;8799;43.594;13.526;2023-02-15T06:16:04;15.50;;;7.03;;
17363;SDS011;8799;43.594;13.526;2023-02-15T06:18:31;17.67;;;8.07;;
17363;SDS011;8799;43.594;13.526;2023-02-15T06:21:01;14.47;;;7.77;;
17363;SDS011;8799;43.594;13.526;2023-02-15T06:23:29;16.37;;;8.80;;
17363;SDS011;8799;43.594;13.526;2023-02-15T06:25:57;16.17;;;7.30;;
17363;SDS011;8799;43.594;13.526;2023-02-15T06:28:26;18.27;;;8.40;;
17363;SDS011;8799;43.594;13.526;2023-02-15T06:30:54;17.03;;;7.37;;
17363;SDS011;8799;43.594;13.526;2023-02-15T06:33:22;17.67;;;7.30;;
17363;SDS011;8799;43.594;13.526;2023-02-15T06:35:50;14.97;;;7.27;;
17363;SDS011;8799;43.594;13.526;2023-02-15T06:38:20;18.63;;;8.00;;
17363;SDS011;8799;43.594;13.526;2023-02-15T06:40:48;25.67;;;8.67;;
17363;SDS011;8799;43.594;13.526;2023-02-15T06:43:16;18.53;;;7.00;;
17363;SDS011;8799;43.594;13.526;2023-02-15T06:45:44;13.40;;;6.87;;
17363;SDS011;8799;43.594;13.526;2023-02-15T06:48:12;15.60;;;7.83;;
17363;SDS011;8799;43.594;13.526;2023-02-15T06:50:40;22.97;;;8.43;;
17363;SDS011;8799;43.594;13.526;2023-02-15T06:53:08;16.10;;;7.90;;
17363;SDS011;8799;43.594;13.526;2023-02-15T06:55:38;19.47;;;8.07;;
17363;SDS011;8799;43.594;13.526;2023-02-15T06:58:06;14.73;;;7.77;;
17363;SDS011;8799;43.594;13.526;2023-02-15T07:00:34;16.33;;;8.27;;
17363;SDS011;8799;43.594;13.526;2023-02-15T07:03:02;19.07;;;8.77;;
17363;SDS011;8799;43.594;13.526;2023-02-15T07:05:32;17.30;;;8.03;;
17363;SDS011;8799;43.594;13.526;2023-02-15T07:08:01;18.90;;;8.43;;
17363;SDS011;8799;43.594;13.526;2023-02-15T07:10:30;14.40;;;7.50;;
17363;SDS011;8799;43.594;13.526;2023-02-15T07:13:01;22.73;;;8.43;;
17363;SDS011;8799;43.594;13.526;2023-02-15T07:15:27;20.87;;;8.60;;
17363;SDS011;8799;43.594;13.526;2023-02-15T07:17:56;23.53;;;7.23;;
17363;SDS011;8799;43.594;13.526;2023-02-15T07:20:25;15.40;;;7.73;;
17363;SDS011;8799;43.594;13.526;2023-02-15T07:22:53;14.67;;;7.73;;
17363;SDS011;8799;43.594;13.526;2023-02-15T07:25:21;15.03;;;7.57;;
17363;SDS011;8799;43.594;13.526;2023-02-15T07:27:55;13.83;;;7.63;;
17363;SDS011;8799;43.594;13.526;2023-02-15T07:30:25;16.43;;;7.53;;
17363;SDS011;8799;43.594;13.526;2023-02-15T07:32:54;17.00;;;7.30;;
17363;SDS011;8799;43.594;13.526;2023-02-15T07:35:45;18.67;;;7.77;;
17363;SDS011;8799;43.594;13.526;2023-02-15T07:38:14;15.00;;;7.10;;
17363;SDS011;8799;43.594;13.526;2023-02-15T07:40:41;21.20;;;8.30;;
17363;SDS011;8799;43.594;13.526;2023-02-15T07:43:09;16.00;;;7.47;;
17363;SDS011;8799;43.594;13.526;2023-02-15T07:45:39;14.90;;;7.40;;
17363;SDS011;8799;43.594;13.526;2023-02-15T07:48:06;13.60;;;7.63;;
17363;SDS011;8799;43.594;13.526;2023-02-15T07:50:39;14.67;;;7.70;;
17363;SDS011;8799;43.594;13.526;2023-02-15T07:53:07;16.97;;;7.70;;
17363;SDS011;8799;43.594;13.526;2023-02-15T07:55:35;16.80;;;7.63;;
17363;SDS011;8799;43.594;13.526;2023-02-15T07:58:02;17.83;;;7.27;;
17363;SDS011;8799;43.594;13.526;2023-02-15T08:00:30;16.80;;;7.37;;
17363;SDS011;8799;43.594;13.526;2023-02-15T08:03:19;15.87;;;8.07;;
17363;SDS011;8799;43.594;13.526;2023-02-15T08:05:54;16.10;;;7.07;;
17363;SDS011;8799;43.594;13.526;2023-02-15T08:08:24;16.27;;;7.97;;
17363;SDS011;8799;43.594;13.526;2023-02-15T08:10:59;15.73;;;7.20;;
17363;SDS011;8799;43.594;13.526;2023-02-15T08:13:45;19.37;;;7.73;;
17363;SDS011;8799;43.594;13.526;2023-02-15T08:16:24;13.50;;;6.90;;
17363;SDS011;8799;43.594;13.526;2023-02-15T08:18:55;14.03;;;7.30;;
17363;SDS011;8799;43.594;13.526;2023-02-15T08:21:25;13.17;;;6.60;;
17363;SDS011;8799;43.594;13.526;2023-02-15T08:23:54;15.83;;;8.27;;
17363;SDS011;8799;43.594;13.526;2023-02-15T08:26:23;16.77;;;7.03;;
17363;SDS011;8799;43.594;13.526;2023-02-15T08:28:51;14.27;;;7.50;;
17363;SDS011;8799;43.594;13.526;2023-02-15T08:31:19;12.73;;;6.53;;
17363;SDS011;8799;43.594;13.526;2023-02-15T08:33:48;16.60;;;7.57;;
17363;SDS011;8799;43.594;13.526;2023-02-15T08:36:20;14.83;;;7.43;;
17363;SDS011;8799;43.594;13.526;2023-02-15T08:38:49;15.50;;;7.50;;
17363;SDS011;8799;43.594;13.526;2023-02-15T08:41:18;15.67;;;6.73;;
17363;SDS011;8799;43.594;13.526;2023-02-15T08:43:48;20.80;;;7.63;;
17363;SDS011;8799;43.594;13.526;2023-02-15T08:46:18;16.83;;;7.80;;
17363;SDS011;8799;43.594;13.526;2023-02-15T08:48:47;13.50;;;6.80;;
17363;SDS011;8799;43.594;13.526;2023-02-15T08:51:16;18.40;;;7.07;;
17363;SDS011;8799;43.594;13.526;2023-02-15T08:53:48;16.20;;;6.60;;
17363;SDS011;8799;43.594;13.526;2023-02-15T08:56:19;11.67;;;6.33;;
17363;SDS011;8799;43.594;13.526;2023-02-15T08:58:48;12.10;;;6.43;;
17363;SDS011;8799;43.594;13.526;2023-02-15T09:01:16;16.23;;;6.83;;
17363;SDS011;8799;43.594;13.526;2023-02-15T09:03:46;13.90;;;7.10;;
17363;SDS011;8799;43.594;13.526;2023-02-15T09:06:15;13.30;;;6.20;;
17363;SDS011;8799;43.594;13.526;2023-02-15T09:08:43;13.47;;;6.70;;
17363;SDS011;8799;43.594;13.526;2023-02-15T09:11:14;13.17;;;6.53;;
17363;SDS011;8799;43.594;13.526;2023-02-15T09:13:47;12.03;;;7.07;;
17363;SDS011;8799;43.594;13.526;2023-02-15T09:16:15;11.77;;;6.87;;
17363;SDS011;8799;43.594;13.526;2023-02-15T09:18:43;12.87;;;6.63;;
17363;SDS011;8799;43.594;13.526;2023-02-15T09:21:13;14.23;;;6.57;;
17363;SDS011;8799;43.594;13.526;2023-02-15T09:23:43;10.40;;;6.70;;
17363;SDS011;8799;43.594;13.526;2023-02-15T09:26:14;12.10;;;6.60;;
17363;SDS011;8799;43.594;13.526;2023-02-15T09:28:44;14.80;;;6.90;;
17363;SDS011;8799;43.594;13.526;2023-02-15T09:31:12;12.80;;;6.33;;
17363;SDS011;8799;43.594;13.526;2023-02-15T09:33:42;15.33;;;7.43;;
17363;SDS011;8799;43.594;13.526;2023-02-15T09:36:15;13.97;;;7.07;;
17363;SDS011;8799;43.594;13.526;2023-02-15T09:38:44;13.67;;;6.40;;
17363;SDS011;8799;43.594;13.526;2023-02-15T09:41:28;12.70;;;6.27;;
17363;SDS011;8799;43.594;13.526;2023-02-15T09:44:15;13.07;;;6.70;;
17363;SDS011;8799;43.594;13.526;2023-02-15T09:46:54;16.23;;;6.83;;
17363;SDS011;8799;43.594;13.526;2023-02-15T09:49:38;12.23;;;7.07;;
17363;SDS011;8799;43.594;13.526;2023-02-15T09:52:19;13.77;;;6.93;;
17363;SDS011;8799;43.594;13.526;2023-02-15T09:55:19;14.43;;;7.70;;
17363;SDS011;8799;43.594;13.526;2023-02-15T09:58:07;13.57;;;6.50;;
17363;SDS011;8799;43.594;13.526;2023-02-15T10:00:45;13.47;;;6.60;;
17363;SDS011;8799;43.594;13.526;2023-02-15T10:03:23;11.63;;;6.43;;
17363;SDS011;8799;43.594;13.526;2023-02-15T10:06:14;13.67;;;6.93;;
17363;SDS011;8799;43.594;13.526;2023-02-15T10:11:53;13.40;;;6.53;;
17363;SDS011;8799;43.594;13.526;2023-02-15T10:14:36;12.27;;;6.27;;
17363;SDS011;8799;43.594;13.526;2023-02-15T10:17:25;15.33;;;7.20;;
17363;SDS011;8799;43.594;13.526;2023-02-15T10:20:09;15.53;;;6.90;;
17363;SDS011;8799;43.594;13.526;2023-02-15T10:22:49;15.03;;;7.33;;
17363;SDS011;8799;43.594;13.526;2023-02-15T10:25:31;12.97;;;6.67;;
17363;SDS011;8799;43.594;13.526;2023-02-15T10:28:09;12.53;;;6.13;;
17363;SDS011;8799;43.594;13.526;2023-02-15T10:30:46;15.00;;;7.77;;
17363;SDS011;8799;43.594;13.526;2023-02-15T10:33:23;13.47;;;6.87;;
17363;SDS011;8799;43.594;13.526;2023-02-15T10:36:07;12.60;;;6.43;;
17363;SDS011;8799;43.594;13.526;2023-02-15T10:38:48;11.93;;;6.40;;
17363;SDS011;8799;43.594;13.526;2023-02-15T10:41:24;14.33;;;6.70;;
17363;SDS011;8799;43.594;13.526;2023-02-15T10:44:12;13.47;;;6.63;;
17363;SDS011;8799;43.594;13.526;2023-02-15T10:47:04;10.60;;;5.90;;
17363;SDS011;8799;43.594;13.526;2023-02-15T10:49:59;13.57;;;7.00;;
17363;SDS011;8799;43.594;13.526;2023-02-15T10:52:58;13.00;;;6.40;;
17363;SDS011;8799;43.594;13.526;2023-02-15T10:55:38;11.40;;;6.27;;
17363;SDS011;8799;43.594;13.526;2023-02-15T10:58:17;13.40;;;6.23;;
17363;SDS011;8799;43.594;13.526;2023-02-15T11:00:52;13.60;;;6.13;;
17363;SDS011;8799;43.594;13.526;2023-02-15T11:03:31;12.20;;;5.90;;
17363;SDS011;8799;43.594;13.526;2023-02-15T11:06:08;11.27;;;6.07;;
17363;SDS011;8799;43.594;13.526;2023-02-15T11:08:39;11.63;;;6.73;;
17363;SDS011;8799;43.594;13.526;2023-02-15T11:11:10;13.70;;;6.83;;
17363;SDS011;8799;43.594;13.526;2023-02-15T11:13:43;12.53;;;6.23;;
17363;SDS011;8799;43.594;13.526;2023-02-15T11:16:16;12.03;;;5.83;;
17363;SDS011;8799;43.594;13.526;2023-02-15T11:18:50;11.07;;;6.27;;
17363;SDS011;8799;43.594;13.526;2023-02-15T11:21:22;12.77;;;6.30;;
17363;SDS011;8799;43.594;13.526;2023-02-15T11:23:53;10.33;;;6.13;;
17363;SDS011;8799;43.594;13.526;2023-02-15T11:26:24;12.77;;;6.33;;
17363;SDS011;8799;43.594;13.526;2023-02-15T11:28:59;15.70;;;6.47;;
17363;SDS011;8799;43.594;13.526;2023-02-15T11:31:35;15.73;;;7.43;;
17363;SDS011;8799;43.594;13.526;2023-02-15T11:34:13;12.47;;;5.90;;
17363;SDS011;8799;43.594;13.526;2023-02-15T11:36:47;13.70;;;6.50;;
17363;SDS011;8799;43.594;13.526;2023-02-15T11:39:17;12.90;;;6.20;;
17363;SDS011;8799;43.594;13.526;2023-02-15T11:41:47;12.13;;;6.37;;
17363;SDS011;8799;43.594;13.526;2023-02-15T11:44:20;12.63;;;6.47;;
17363;SDS011;8799;43.594;13.526;2023-02-15T11:46:52;13.27;;;6.57;;
17363;SDS011;8799;43.594;13.526;2023-02-15T11:49:24;13.67;;;6.30;;
17363;SDS011;8799;43.594;13.526;2023-02-15T11:51:55;12.57;;;6.80;;
17363;SDS011;8799;43.594;13.526;2023-02-15T11:54:25;12.83;;;6.47;;
17363;SDS011;8799;43.594;13.526;2023-02-15T11:56:56;13.13;;;6.90;;
17363;SDS011;8799;43.594;13.526;2023-02-15T11:59:29;13.63;;;6.33;;
17363;SDS011;8799;43.594;13.526;2023-02-15T12:01:59;12.20;;;6.80;;
17363;SDS011;8799;43.594;13.526;2023-02-15T12:04:30;13.63;;;7.07;;
17363;SDS011;8799;43.594;13.526;2023-02-15T12:07:02;13.47;;;6.63;;
17363;SDS011;8799;43.594;13.526;2023-02-15T12:09:42;16.03;;;6.93;;
17363;SDS011;8799;43.594;13.526;2023-02-15T12:12:19;13.63;;;6.87;;
17363;SDS011;8799;43.594;13.526;2023-02-15T12:14:49;14.30;;;6.23;;
17363;SDS011;8799;43.594;13.526;2023-02-15T12:17:20;14.17;;;6.93;;
17363;SDS011;8799;43.594;13.526;2023-02-15T12:19:52;14.57;;;6.20;;
17363;SDS011;8799;43.594;13.526;2023-02-15T12:22:24;13.90;;;7.20;;
17363;SDS011;8799;43.594;13.526;2023-02-15T12:24:55;13.97;;;6.47;;
17363;SDS011;8799;43.594;13.526;2023-02-15T12:27:26;12.13;;;6.20;;
17363;SDS011;8799;43.594;13.526;2023-02-15T12:29:56;12.50;;;6.00;;
17363;SDS011;8799;43.594;13.526;2023-02-15T12:32:28;18.73;;;7.03;;
17363;SDS011;8799;43.594;13.526;2023-02-15T12:35:02;15.90;;;6.90;;
17363;SDS011;8799;43.594;13.526;2023-02-15T12:37:36;13.17;;;5.83;;
17363;SDS011;8799;43.594;13.526;2023-02-15T12:40:18;13.33;;;6.30;;
17363;SDS011;8799;43.594;13.526;2023-02-15T12:42:51;13.97;;;6.77;;
17363;SDS011;8799;43.594;13.526;2023-02-15T12:45:21;15.00;;;6.50;;
17363;SDS011;8799;43.594;13.526;2023-02-15T12:48:14;16.53;;;7.27;;
17363;SDS011;8799;43.594;13.526;2023-02-15T12:50:45;14.57;;;6.83;;
17363;SDS011;8799;43.594;13.526;2023-02-15T12:53:14;14.47;;;6.23;;
17363;SDS011;8799;43.594;13.526;2023-02-15T12:55:52;11.03;;;6.33;;
17363;SDS011;8799;43.594;13.526;2023-02-15T12:58:23;14.27;;;6.33;;
17363;SDS011;8799;43.594;13.526;2023-02-15T13:01:01;11.87;;;6.77;;
17363;SDS011;8799;43.594;13.526;2023-02-15T13:03:50;14.37;;;7.17;;
17363;SDS011;8799;43.594;13.526;2023-02-15T13:06:26;13.83;;;7.27;;
17363;SDS011;8799;43.594;13.526;2023-02-15T13:08:55;12.43;;;6.30;;
17363;SDS011;8799;43.594;13.526;2023-02-15T13:11:25;13.03;;;6.93;;
17363;SDS011;8799;43.594;13.526;2023-02-15T13:13:59;13.67;;;6.37;;
17363;SDS011;8799;43.594;13.526;2023-02-15T13:16:29;14.73;;;6.33;;
17363;SDS011;8799;43.594;13.526;2023-02-15T13:19:02;13.13;;;6.70;;
17363;SDS011;8799;43.594;13.526;2023-02-15T13:21:37;15.07;;;7.17;;
17363;SDS011;8799;43.594;13.526;2023-02-15T13:24:10;14.00;;;6.90;;
17363;SDS011;8799;43.594;13.526;2023-02-15T13:26:45;13.67;;;6.87;;
17363;SDS011;8799;43.594;13.526;2023-02-15T13:29:16;12.83;;;6.77;;
17363;SDS011;8799;43.594;13.526;2023-02-15T13:31:48;14.97;;;6.97;;
17363;SDS011;8799;43.594;13.526;2023-02-15T13:34:19;13.77;;;6.83;;
17363;SDS011;8799;43.594;13.526;2023-02-15T13:36:54;14.70;;;7.80;;
17363;SDS011;8799;43.594;13.526;2023-02-15T13:39:32;14.60;;;7.33;;
17363;SDS011;8799;43.594;13.526;2023-02-15T13:42:12;18.30;;;7.40;;
17363;SDS011;8799;43.594;13.526;2023-02-15T13:47:45;14.33;;;7.03;;
17363;SDS011;8799;43.594;13.526;2023-02-15T13:50:25;15.50;;;7.03;;
17363;SDS011;8799;43.594;13.526;2023-02-15T13:53:12;15.40;;;7.10;;
17363;SDS011;8799;43.594;13.526;2023-02-15T13:55:51;17.73;;;7.23;;
17363;SDS011;8799;43.594;13.526;2023-02-15T13:58:31;15.53;;;7.43;;
17363;SDS011;8799;43.594;13.526;2023-02-15T14:01:24;15.83;;;8.17;;
17363;SDS011;8799;43.594;13.526;2023-02-15T14:04:10;16.93;;;8.23;;
17363;SDS011;8799;43.594;13.526;2023-02-15T14:07:07;21.43;;;7.27;;
17363;SDS011;8799;43.594;13.526;2023-02-15T14:09:51;16.03;;;7.57;;
17363;SDS011;8799;43.594;13.526;2023-02-15T14:12:36;14.00;;;6.80;;
17363;SDS011;8799;43.594;13.526;2023-02-15T14:15:18;14.97;;;6.77;;
17363;SDS011;8799;43.594;13.526;2023-02-15T14:18:00;17.07;;;7.93;;
17363;SDS011;8799;43.594;13.526;2023-02-15T14:20:47;12.33;;;6.20;;
17363;SDS011;8799;43.594;13.526;2023-02-15T14:23:29;17.07;;;7.50;;
17363;SDS011;8799;43.594;13.526;2023-02-15T14:26:29;14.77;;;7.50;;
17363;SDS011;8799;43.594;13.526;2023-02-15T14:29:06;14.67;;;7.37;;
17363;SDS011;8799;43.594;13.526;2023-02-15T14:31:43;17.83;;;7.57;;
17363;SDS011;8799;43.594;13.526;2023-02-15T14:34:17;15.53;;;7.53;;
17363;SDS011;8799;43.594;13.526;2023-02-15T14:36:48;17.20;;;7.40;;
17363;SDS011;8799;43.594;13.526;2023-02-15T14:39:22;16.10;;;8.10;;
17363;SDS011;8799;43.594;13.526;2023-02-15T14:42:15;14.20;;;7.30;;
17363;SDS011;8799;43.594;13.526;2023-02-15T14:44:48;13.47;;;7.50;;
17363;SDS011;8799;43.594;13.526;2023-02-15T14:47:26;15.90;;;7.03;;
17363;SDS011;8799;43.594;13.526;2023-02-15T14:50:00;14.83;;;7.33;;
17363;SDS011;8799;43.594;13.526;2023-02-15T14:53:15;17.10;;;7.17;;
17363;SDS011;8799;43.594;13.526;2023-02-15T14:58:58;14.43;;;7.57;;
17363;SDS011;8799;43.594;13.526;2023-02-15T15:01:41;14.77;;;7.40;;
17363;SDS011;8799;43.594;13.526;2023-02-15T15:04:21;14.93;;;7.67;;
17363;SDS011;8799;43.594;13.526;2023-02-15T15:06:57;16.03;;;8.13;;
17363;SDS011;8799;43.594;13.526;2023-02-15T15:09:29;16.07;;;7.77;;
17363;SDS011;8799;43.594;13.526;2023-02-15T15:12:13;21.73;;;7.73;;
17363;SDS011;8799;43.594;13.526;2023-02-15T15:14:57;16.80;;;8.53;;
17363;SDS011;8799;43.594;13.526;2023-02-15T15:20:38;15.90;;;7.53;;
17363;SDS011;8799;43.594;13.526;2023-02-15T15:26:26;17.10;;;7.20;;
17363;SDS011;8799;43.594;13.526;2023-02-15T15:28:56;15.40;;;7.63;;
17363;SDS011;8799;43.594;13.526;2023-02-15T15:31:29;16.73;;;7.30;;
17363;SDS011;8799;43.594;13.526;2023-02-15T15:34:19;16.57;;;7.93;;
17363;SDS011;8799;43.594;13.526;2023-02-15T15:40:48;14.90;;;7.33;;